Flight Track Log - Related Links

Times and Time Zones

All times are in EDT time to prevent confusion due to time zone crossing. See the DAL2352 flight status page for this flight to view local times or setup timezone preferences in your user account.

Time Position Orientation Groundspeed Altitude Reporting Facility
EDT Latitude Longitude Course Direction KTS MPH feet Rate Location/Type
Mon 06:27:22 AM 42.7694 -73.8089 180° South 172 198 1,100  Level Boston Center
Mon 06:28:16 AM 42.8236 -73.8103 359° North 215 247 2,400 1,947 Climbing Boston Center
Mon 06:29:53 AM 42.9317 -73.8267 354° North 277 319 6,000 2,408 Climbing Boston Center
Mon 06:30:00 AM 42.4338 -74.2419 198° South  Level Estimated
Mon 06:30:53 AM 42.9828 -73.9131 309° West 260 299 8,700  Level Boston Center
Mon 06:31:00 AM 42.3548 -74.3511 200° South  Level Estimated
Mon 06:31:53 AM 43.0128 -74.0075 294° West 273 314 10,600  Level Boston Center
Mon 06:32:00 AM 42.2756 -74.4601 180° South  Level Estimated
Mon 06:32:53 AM 42.9553 -74.0883 226° Southwest 261 300 11,800  Level Boston Center
Mon 06:33:53 AM 42.8686 -74.1681 214° Southwest 345 397 13,300 1,650 Climbing Boston Center
Mon 06:34:53 AM 42.7778 -74.2478 213° Southwest 386 444 15,100 1,800 Climbing Boston Center
Mon 06:35:53 AM 42.6653 -74.2417 178° South 397 457 16,900 1,750 Climbing Boston Center
Mon 06:36:53 AM 42.5642 -74.1906 160° South 417 480 18,600 1,500 Climbing Boston Center
Mon 06:37:53 AM 42.4481 -74.1425 163° South 427 491 19,900 1,300 Climbing Boston Center
Mon 06:38:53 AM 42.3303 -74.0831 160° South 447 514 21,200 1,250 Climbing Boston Center
Mon 06:39:53 AM 42.2036 -74.0406 166° South 460 529 22,400 1,400 Climbing Boston Center
Mon 06:40:53 AM 42.0764 -74.0483 183° South 460 529 24,000 1,685 Climbing Boston Center
Mon 06:42:51 AM 41.8364 -74.0589 182° South 459 528 27,400 1,508 Climbing New York Center
Mon 06:43:52 AM 41.7153 -74.0669 183° South 446 513 28,500 1,041 Climbing New York Center
Mon 06:44:52 AM 41.5986 -74.0722 182° South 439 505 29,500 942 Climbing New York Center
Mon 06:45:53 AM 41.4714 -74.0797 183° South 434 499 30,400 857 Climbing New York Center
Mon 06:46:51 AM 41.3544 -74.0906 184° South 428 493 31,200 706 Climbing New York Center
Mon 06:47:52 AM 41.2431 -74.1236 193° South 423 487 31,800 400 Climbing New York Center
Mon 06:48:51 AM 41.1656 -74.2161 222° Southwest 393 452 32,000 100 Climbing New York Center
Mon 06:49:52 AM 41.0892 -74.3306 228° Southwest 400 460 32,000  Level New York Center
Mon 06:50:52 AM 41.0128 -74.4422 228° Southwest 412 474 32,000  Level New York Center
Mon 06:51:53 AM 40.9386 -74.5508 228° Southwest 412 474 32,000  Level New York Center
Mon 06:52:53 AM 40.8597 -74.6672 228° Southwest 417 480 32,000  Level New York Center
Mon 06:53:51 AM 40.7836 -74.7697 226° Southwest 412 474 32,000  Level New York Center
Mon 06:54:53 AM 40.7108 -74.8803 229° Southwest 412 474 32,000  Level New York Center
Mon 06:55:51 AM 40.6256 -74.9983 226° Southwest 412 474 32,000  Level New York Center
Mon 06:56:52 AM 40.5486 -75.1083 227° Southwest 412 474 32,000  Level New York Center
Mon 06:57:52 AM 40.4694 -75.2150 226° Southwest 412 474 32,000  Level New York Center
Mon 06:58:53 AM 40.3922 -75.3272 228° Southwest 412 474 32,000  Level New York Center
Mon 06:59:51 AM 40.3131 -75.4336 226° Southwest 412 474 32,000  Level New York Center
Mon 07:00:52 AM 40.2358 -75.5453 228° Southwest 412 474 32,000  Level New York Center
Mon 07:01:52 AM 40.1722 -75.6686 236° Southwest 417 480 32,000  Level New York Center
Mon 07:02:51 AM 40.1064 -75.7969 236° Southwest 424 488 32,000  Level New York Center
Mon 07:03:51 AM 40.0450 -75.9175 236° Southwest 424 488 32,000  Level New York Center
Mon 07:04:51 AM 39.9753 -76.0342 232° Southwest 419 482 32,000  Level New York Center
Mon 07:05:52 AM 39.9036 -76.1425 229° Southwest 412 474 32,000  Level New York Center
Mon 07:07:28 AM 39.7844 -76.3258 230° Southwest 415 478 32,000  Level Washington Center
Mon 07:08:28 AM 39.7128 -76.4358 230° Southwest 415 478 32,000  Level Washington Center
Mon 07:09:28 AM 39.6328 -76.5481 227° Southwest 410 472 32,000  Level Washington Center
Mon 07:10:29 AM 39.5631 -76.6575 230° Southwest 410 472 32,000  Level Washington Center
Mon 07:11:29 AM 39.4911 -76.7694 230° Southwest 410 472 32,000  Level Washington Center
Mon 07:12:29 AM 39.4192 -76.8783 229° Southwest 410 472 32,000  Level Washington Center
Mon 07:13:30 AM 39.3450 -76.9897 229° Southwest 404 465 32,000  Level Washington Center
Mon 07:14:30 AM 39.2728 -77.0983 229° Southwest 404 465 32,000  Level Washington Center
Mon 07:15:28 AM 39.2028 -77.2067 230° Southwest 404 465 32,000  Level Washington Center
Mon 07:16:29 AM 39.1283 -77.3147 228° Southwest 399 459 32,000  Level Washington Center
Mon 07:17:30 AM 39.0581 -77.4200 229° Southwest 399 459 32,000  Level Washington Center
Mon 07:18:27 AM 38.9875 -77.5250 229° Southwest 399 459 32,000  Level Washington Center
Mon 07:19:28 AM 38.9214 -77.6194 228° Southwest 399 459 32,000 244 Level Washington Center
Mon 07:20:30 AM 38.8422 -77.7344 229° Southwest 399 459 32,500 353 Climbing Washington Center
Mon 07:21:27 AM 38.7736 -77.8336 228° Southwest 405 466 32,700 305 Climbing Washington Center
Mon 07:22:28 AM 38.7050 -77.9353 229° Southwest 399 459 33,100 344 Climbing Washington Center
Mon 07:23:29 AM 38.6342 -78.0394 229° Southwest 394 453 33,400 443 Climbing Washington Center
Mon 07:24:30 AM 38.5633 -78.1406 228° Southwest 394 453 34,000 305 Climbing Washington Center
Mon 07:25:27 AM 38.4944 -78.2417 229° Southwest 394 453 34,000  Level Washington Center
Mon 07:26:28 AM 38.4253 -78.3453 230° Southwest 394 453 34,000  Level Washington Center
Mon 07:27:29 AM 38.3583 -78.4461 230° Southwest 394 453 34,000  Level Washington Center
Mon 07:28:30 AM 38.2892 -78.5492 229° Southwest 394 453 34,000  Level Washington Center
Mon 07:29:27 AM 38.2239 -78.6525 231° Southwest 389 448 34,000  Level Washington Center
Mon 07:30:28 AM 38.1547 -78.7500 228° Southwest 384 442 34,000  Level Washington Center
Mon 07:31:28 AM 38.0831 -78.8497 228° Southwest 384 442 34,000  Level Washington Center
Mon 07:32:29 AM 38.0136 -78.9522 229° Southwest 384 442 34,000  Level Washington Center
Mon 07:33:30 AM 37.9311 -79.0669 228° Southwest 391 450 34,000  Level Washington Center
Mon 07:34:28 AM 37.8569 -79.1714 228° Southwest 403 464 34,000  Level Washington Center
Mon 07:35:29 AM 37.7808 -79.2781 228° Southwest 403 464 34,000  Level Washington Center
Mon 07:36:29 AM 37.7047 -79.3822 227° Southwest 403 464 34,000  Level Washington Center
Mon 07:37:28 AM 37.6347 -79.4783 227° Southwest 408 470 34,000  Level Washington Center
Mon 07:38:28 AM 37.5497 -79.5944 227° Southwest 408 470 34,000  Level Washington Center
Mon 07:39:29 AM 37.4797 -79.6903 227° Southwest 413 475 34,000  Level Washington Center
Mon 07:40:30 AM 37.3919 -79.8136 228° Southwest 419 482 34,000  Level Washington Center
Mon 07:41:28 AM 37.3217 -79.9064 226° Southwest 425 489 34,000  Level Washington Center
Mon 07:42:30 AM 37.2447 -80.0142 228° Southwest 425 489 34,000  Level Washington Center
Mon 07:43:28 AM 37.1656 -80.1242 228° Southwest 425 489 34,000  Level Washington Center
Mon 07:44:33 AM 37.0717 -80.2486 227° Southwest 417 480 34,000  Level Atlanta Center
Mon 07:45:33 AM 36.9994 -80.3458 227° Southwest 417 480 34,000  Level Atlanta Center
Mon 07:46:33 AM 36.9192 -80.4533 227° Southwest 417 480 34,000  Level Atlanta Center
Mon 07:47:33 AM 36.8369 -80.5608 226° Southwest 417 480 34,000 -350 Level Atlanta Center
Mon 07:48:33 AM 36.7544 -80.6681 226° Southwest 427 491 33,300 -1,500 Descending Atlanta Center
Mon 07:49:33 AM 36.6661 -80.7908 228° Southwest 422 486 31,000 -1,650 Descending Atlanta Center
Mon 07:50:33 AM 36.5833 -80.8975 226° Southwest 432 497 30,000 -500 Descending Atlanta Center
Mon 07:51:33 AM 36.5006 -81.0067 227° Southwest 432 497 30,000  Level Atlanta Center
Mon 07:52:33 AM 36.4136 -81.1183 226° Southwest 437 503 30,000  Level Atlanta Center
Mon 07:53:33 AM 36.3286 -81.2322 227° Southwest 437 503 30,000  Level Atlanta Center
Mon 07:54:33 AM 36.2414 -81.3458 226° Southwest 447 514 30,000  Level Atlanta Center
Mon 07:55:33 AM 36.1564 -81.4594 227° Southwest 452 520 30,000  Level Atlanta Center
Mon 07:56:33 AM 36.0689 -81.5728 226° Southwest 458 527 30,000  Level Atlanta Center
Mon 07:57:33 AM 35.9775 -81.6908 226° Southwest 458 527 30,000  Level Atlanta Center
Mon 07:58:33 AM 35.8919 -81.8036 227° Southwest 458 527 30,000  Level Atlanta Center
Mon 07:59:33 AM 35.8064 -81.9161 227° Southwest 463 533 30,000  Level Atlanta Center
Mon 08:00:33 AM 35.7164 -82.0283 225° Southwest 463 533 30,000  Level Atlanta Center
Mon 08:01:33 AM 35.6367 -82.1275 225° Southwest 458 527 30,000  Level Atlanta Center
Mon 08:02:33 AM 35.5444 -82.2367 224° Southwest 465 535 30,000  Level Atlanta Center
Mon 08:03:33 AM 35.4478 -82.3433 222° Southwest 476 548 30,000  Level Atlanta Center
Mon 08:04:33 AM 35.3533 -82.4522 223° Southwest 470 541 30,000  Level Atlanta Center
Mon 08:05:33 AM 35.2567 -82.5583 222° Southwest 464 534 30,000  Level Atlanta Center
Mon 08:06:33 AM 35.1514 -82.6747 222° Southwest 464 534 30,000  Level Atlanta Center
Mon 08:07:33 AM 35.0547 -82.7828 222° Southwest 469 540 30,000 -350 Level Atlanta Center
Mon 08:08:33 AM 34.9617 -82.8806 221° Southwest 464 534 29,300 -1,300 Descending Atlanta Center
Mon 08:09:33 AM 34.8750 -82.9756 222° Southwest 438 504 27,400 -2,000 Descending Atlanta Center
Mon 08:10:33 AM 34.7900 -83.0700 222° Southwest 422 486 25,300 -2,100 Descending Atlanta Center
Mon 08:11:33 AM 34.7094 -83.1669 225° Southwest 402 463 23,200 -1,600 Descending Atlanta Center
Mon 08:12:33 AM 34.6286 -83.2561 222° Southwest 418 481 22,100 -1,550 Descending Atlanta Center
Mon 08:13:33 AM 34.5417 -83.3528 222° Southwest 425 489 20,100 -2,150 Descending Atlanta Center
Mon 08:14:33 AM 34.4564 -83.4442 221° Southwest 425 489 17,800 -2,300 Descending Atlanta Center
Mon 08:15:33 AM 34.3733 -83.5331 221° Southwest 410 472 15,500 -2,200 Descending Atlanta Center
Mon 08:16:33 AM 34.3006 -83.6164 223° Southwest 381 438 13,400 -1,800 Descending Atlanta Center
Mon 08:17:33 AM 34.2236 -83.6972 221° Southwest 366 421 11,900 -750 Descending Atlanta Center
Mon 08:18:33 AM 34.1425 -83.7853 222° Southwest 366 421 11,900 50 Level Atlanta Center
Mon 08:19:33 AM 34.0781 -83.8533 221° Southwest 334 384 12,000 -589 Climbing Atlanta Center
Mon 08:20:25 AM 34.0333 -83.9000 221° Southwest 286 329 10,800 -1,514 Descending Atlanta TRACON
Mon 08:21:20 AM 33.9667 -83.9500 212° Southwest 288 331 9,300 -939 Descending Atlanta TRACON
Mon 08:22:20 AM 33.8833 -83.9500 180° South 280 322 9,000 -450 Descending Atlanta TRACON
Mon 08:23:20 AM 33.8167 -83.9500 180° South 243 280 8,400 -450 Descending Atlanta TRACON
Mon 08:24:20 AM 33.7500 -83.9500 180° South 233 268 8,100 -619 Descending Atlanta TRACON
Mon 08:25:26 AM 33.6833 -83.9833 203° Southwest 229 264 7,100 -476 Descending Atlanta TRACON
Mon 08:26:26 AM 33.6500 -84.0167 220° Southwest 199 229 7,100 -300 Level Atlanta TRACON
Mon 08:27:26 AM 33.6333 -84.0667 248° West 193 222 6,500 -900 Descending Atlanta TRACON
Mon 08:28:26 AM 33.6333 -84.1333 270° West 192 221 5,300 -1,053 Descending Atlanta TRACON
Mon 08:29:20 AM 33.6333 -84.2000 270° West 189 217 4,500 -889 Descending Atlanta TRACON

Login

Don't have an account? Register now (free) for customized features, flight alerts, and more!